createdAt,value
2022-08-24T00:02:02.092Z,76.97
2022-08-24T00:04:32.083Z,77.45
2022-08-24T00:07:00.422Z,77.56
2022-08-24T00:09:28.221Z,77.22
2022-08-24T00:11:57.558Z,76.88
2022-08-24T00:14:25.518Z,77.03
2022-08-24T00:16:54.120Z,77.44
2022-08-24T00:19:22.138Z,78.29
2022-08-24T00:21:50.567Z,77.91
2022-08-24T00:24:18.444Z,77.71
2022-08-24T00:26:47.504Z,78.06
2022-08-24T00:29:19.181Z,77.72
2022-08-24T00:34:40.540Z,77.75
2022-08-24T00:37:13.878Z,77.88
2022-08-24T00:39:42.050Z,77.83
2022-08-24T00:42:10.010Z,77.90
2022-08-24T00:44:39.178Z,78.05
2022-08-24T00:47:15.082Z,78.34
2022-08-24T00:49:46.953Z,79.08
2022-08-24T00:52:19.512Z,78.92
2022-08-24T00:54:51.462Z,78.46
2022-08-24T00:57:22.355Z,78.90
2022-08-24T00:59:56.648Z,78.75
2022-08-24T01:02:30.306Z,78.75
2022-08-24T01:05:01.575Z,78.74
2022-08-24T01:07:32.737Z,78.94
2022-08-24T01:10:04.013Z,78.43
2022-08-24T01:12:34.245Z,78.52
2022-08-24T01:15:07.569Z,78.19
2022-08-24T01:17:55.334Z,78.21
2022-08-24T01:20:26.312Z,78.41
2022-08-24T01:23:03.216Z,78.19
2022-08-24T01:25:34.404Z,77.93
2022-08-24T01:28:07.071Z,78.50
2022-08-24T01:30:36.420Z,78.23
2022-08-24T01:33:08.369Z,78.44
2022-08-24T01:35:38.471Z,78.55
2022-08-24T01:38:11.789Z,78.66
2022-08-24T01:40:45.147Z,78.78
2022-08-24T01:43:15.214Z,78.62
2022-08-24T01:45:44.003Z,79.17
2022-08-24T01:48:13.777Z,78.36
2022-08-24T01:50:41.649Z,77.98
2022-08-24T01:53:11.014Z,77.98
2022-08-24T01:55:39.045Z,78.55
2022-08-24T01:58:08.953Z,78.90
2022-08-24T02:00:37.666Z,78.65
2022-08-24T02:03:06.036Z,78.18
2022-08-24T02:05:34.581Z,78.42
2022-08-24T02:08:02.598Z,78.09
2022-08-24T02:10:30.974Z,78.57
2022-08-24T02:12:59.957Z,78.39
2022-08-24T02:15:31.852Z,78.79
2022-08-24T02:18:01.135Z,78.76
2022-08-24T02:20:30.336Z,78.79
2022-08-24T02:22:59.096Z,78.63
2022-08-24T02:25:30.572Z,78.85
2022-08-24T02:27:59.467Z,78.98
2022-08-24T02:30:29.875Z,78.98
2022-08-24T02:32:59.390Z,78.91
2022-08-24T02:35:31.052Z,79.01
2022-08-24T02:37:59.715Z,78.61
2022-08-24T02:40:29.262Z,78.59
2022-08-24T02:42:57.557Z,78.42
2022-08-24T02:45:26.114Z,78.64
2022-08-24T02:47:55.480Z,78.50
2022-08-24T02:50:25.225Z,78.33
2022-08-24T02:52:54.317Z,78.27
2022-08-24T02:55:22.513Z,78.64
2022-08-24T02:57:52.999Z,77.86
2022-08-24T03:00:22.725Z,78.26
2022-08-24T03:02:56.140Z,78.46
2022-08-24T03:05:26.162Z,78.09
2022-08-24T03:07:54.390Z,78.16
2022-08-24T03:10:23.288Z,77.66
2022-08-24T03:12:51.739Z,77.70
2022-08-24T03:15:22.690Z,78.17
2022-08-24T03:17:51.645Z,78.78
2022-08-24T03:20:23.298Z,78.23
2022-08-24T03:22:52.107Z,78.31
2022-08-24T03:25:24.696Z,78.41
2022-08-24T03:27:53.085Z,77.91
2022-08-24T03:30:21.346Z,78.39
2022-08-24T03:32:51.181Z,78.08
2022-08-24T03:35:22.355Z,78.47
2022-08-24T03:37:50.892Z,78.98
2022-08-24T03:40:23.156Z,78.86
2022-08-24T03:42:56.279Z,78.21
2022-08-24T03:45:24.668Z,78.25
2022-08-24T03:47:53.271Z,78.25
2022-08-24T03:50:24.001Z,78.91
2022-08-24T03:52:52.973Z,78.93
2022-08-24T03:55:21.026Z,78.70
2022-08-24T03:57:48.953Z,78.67
2022-08-24T04:00:17.618Z,78.78
2022-08-24T04:02:54.640Z,78.78
2022-08-24T04:05:26.571Z,78.59
2022-08-24T04:07:54.598Z,78.41
2022-08-24T04:10:22.471Z,78.35
2022-08-24T04:12:50.329Z,78.00
2022-08-24T04:15:24.389Z,78.61
2022-08-24T04:17:52.304Z,78.14
2022-08-24T04:20:20.285Z,77.53
2022-08-24T04:22:49.482Z,77.19
2022-08-24T04:25:20.678Z,76.73
2022-08-24T04:27:52.212Z,77.55
2022-08-24T04:30:20.225Z,77.51
2022-08-24T04:33:15.501Z,77.26
2022-08-24T04:35:48.172Z,77.69
2022-08-24T04:38:19.833Z,77.94
2022-08-24T04:41:06.197Z,77.67
2022-08-24T04:43:35.731Z,77.35
2022-08-24T04:46:06.667Z,77.15
2022-08-24T04:48:35.089Z,77.01
2022-08-24T04:51:04.118Z,77.00
2022-08-24T04:53:33.912Z,77.79
2022-08-24T04:56:02.161Z,77.19
2022-08-24T04:58:32.036Z,76.90
2022-08-24T05:01:00.867Z,76.70
2022-08-24T05:03:28.790Z,76.16
2022-08-24T05:05:56.676Z,75.67
2022-08-24T05:08:24.509Z,75.97
2022-08-24T05:10:53.971Z,75.76
2022-08-24T05:13:22.155Z,75.47
2022-08-24T05:15:50.287Z,75.54
2022-08-24T05:18:19.221Z,75.45
2022-08-24T05:20:48.626Z,75.10
2022-08-24T05:23:16.521Z,75.35
2022-08-24T05:25:44.356Z,75.16
2022-08-24T05:28:13.487Z,75.06
2022-08-24T05:30:42.840Z,74.65
2022-08-24T05:33:11.578Z,74.78
2022-08-24T05:35:44.384Z,74.82
2022-08-24T05:38:13.910Z,75.32
2022-08-24T05:40:42.997Z,75.44
2022-08-24T05:43:11.221Z,74.81
2022-08-24T05:45:44.394Z,74.56
2022-08-24T05:48:12.844Z,74.54
2022-08-24T05:51:16.171Z,74.54
2022-08-24T05:53:54.124Z,74.20
2022-08-24T05:56:23.822Z,74.34
2022-08-24T05:58:51.620Z,74.64
2022-08-24T06:01:22.741Z,74.57
2022-08-24T06:03:53.351Z,74.59
2022-08-24T06:06:23.309Z,74.88
2022-08-24T06:08:55.092Z,75.09
2022-08-24T06:11:30.072Z,74.88
2022-08-24T06:14:01.906Z,75.34
2022-08-24T06:16:36.099Z,75.24
2022-08-24T06:19:06.508Z,75.92
2022-08-24T06:21:34.798Z,75.66
2022-08-24T06:24:02.926Z,75.02
2022-08-24T06:26:49.111Z,74.96
2022-08-24T06:29:18.288Z,74.62
2022-08-24T06:32:13.994Z,74.44
2022-08-24T06:34:42.281Z,74.42
2022-08-24T06:37:11.250Z,74.24
2022-08-24T06:39:39.836Z,74.46
2022-08-24T06:42:07.848Z,74.05
2022-08-24T06:44:36.014Z,73.91
2022-08-24T06:47:15.410Z,73.36
2022-08-24T06:49:43.666Z,72.99
2022-08-24T06:52:12.190Z,72.30
2022-08-24T06:54:40.534Z,72.55
2022-08-24T06:57:08.700Z,72.59
2022-08-24T06:59:36.574Z,71.84
2022-08-24T07:02:05.057Z,72.17
2022-08-24T07:04:36.353Z,73.04
2022-08-24T07:07:24.405Z,73.53
2022-08-24T07:09:52.289Z,74.60
2022-08-24T07:12:20.769Z,73.52
2022-08-24T07:14:48.720Z,73.37
2022-08-24T07:17:16.573Z,73.08
2022-08-24T07:19:46.471Z,71.72
2022-08-24T07:22:18.236Z,71.81
2022-08-24T07:24:46.588Z,70.91
2022-08-24T07:27:15.269Z,72.05
2022-08-24T07:29:52.821Z,71.85
2022-08-24T07:32:30.065Z,72.17
2022-08-24T07:34:59.892Z,70.75
2022-08-24T07:37:40.705Z,69.68
2022-08-24T07:40:10.314Z,67.98
2022-08-24T07:42:39.864Z,64.76
2022-08-24T07:45:08.514Z,64.92
2022-08-24T07:47:40.488Z,64.23
2022-08-24T07:50:25.840Z,64.48
2022-08-24T07:52:53.800Z,64.83
2022-08-24T07:55:21.759Z,65.92
2022-08-24T07:57:50.970Z,67.40
2022-08-24T08:00:20.526Z,66.32
2022-08-24T08:02:54.968Z,66.09
2022-08-24T08:05:25.774Z,66.29
2022-08-24T08:07:55.121Z,65.24
2022-08-24T08:10:23.611Z,66.68
2022-08-24T08:12:53.603Z,66.65
2022-08-24T08:15:21.592Z,65.87
2022-08-24T08:18:01.329Z,64.19
2022-08-24T08:20:30.785Z,62.15
2022-08-24T08:23:16.710Z,62.48
2022-08-24T08:26:05.129Z,64.54
2022-08-24T08:28:59.839Z,65.00
2022-08-24T08:31:28.559Z,65.41
2022-08-24T08:33:57.079Z,63.97
2022-08-24T08:36:27.538Z,62.68
2022-08-24T08:38:55.660Z,63.50
2022-08-24T08:42:02.899Z,64.93
2022-08-24T08:44:50.875Z,65.27
2022-08-24T08:47:34.531Z,64.59
2022-08-24T08:50:14.060Z,65.84
2022-08-24T08:53:18.522Z,65.41
2022-08-24T08:55:58.340Z,66.54
2022-08-24T08:58:46.765Z,66.78
2022-08-24T09:01:44.244Z,68.12
2022-08-24T09:04:51.537Z,67.50
2022-08-24T09:07:43.479Z,67.46
2022-08-24T09:10:31.812Z,66.96
2022-08-24T09:13:17.901Z,65.37
2022-08-24T09:16:14.461Z,65.49
2022-08-24T09:19:00.873Z,63.73
2022-08-24T09:22:01.358Z,61.45
2022-08-24T09:24:55.880Z,60.64
2022-08-24T09:28:01.922Z,51.50
2022-08-24T09:30:46.992Z,39.70
2022-08-24T09:33:22.191Z,41.17
2022-08-24T09:36:10.120Z,48.44
2022-08-24T09:39:03.019Z,52.89
2022-08-24T09:42:15.238Z,55.06
2022-08-24T09:45:25.958Z,55.50
2022-08-24T09:48:20.114Z,46.67
2022-08-24T09:51:22.650Z,48.88
2022-08-24T09:54:35.030Z,52.28
2022-08-24T09:57:34.168Z,53.46
2022-08-24T10:00:19.060Z,54.40
2022-08-24T10:02:59.286Z,54.61
2022-08-24T10:05:36.706Z,53.36
2022-08-24T10:08:15.783Z,50.34
2022-08-24T10:10:53.030Z,51.44
2022-08-24T10:13:32.437Z,44.07
2022-08-24T10:16:21.347Z,38.36
2022-08-24T10:19:04.495Z,34.28
2022-08-24T10:21:46.803Z,37.45
2022-08-24T10:24:31.412Z,41.57
2022-08-24T10:27:09.426Z,50.19
2022-08-24T10:30:01.946Z,50.38
2022-08-24T10:32:48.879Z,51.52
2022-08-24T10:35:23.767Z,44.77
2022-08-24T10:38:31.662Z,43.63
2022-08-24T10:41:26.417Z,37.18
2022-08-24T10:44:17.215Z,34.45
2022-08-24T10:46:53.517Z,36.18
2022-08-24T10:50:18.009Z,45.23
2022-08-24T10:53:14.477Z,47.98
2022-08-24T10:55:43.420Z,48.50
2022-08-24T10:58:38.768Z,43.93
2022-08-24T11:01:20.312Z,43.78
2022-08-24T11:03:54.682Z,43.87
2022-08-24T11:06:25.168Z,42.65
2022-08-24T11:08:58.513Z,42.88
2022-08-24T11:11:32.745Z,41.47
2022-08-24T11:14:03.803Z,40.87
2022-08-24T11:16:37.804Z,42.17
2022-08-24T11:19:10.816Z,46.44
2022-08-24T11:21:44.102Z,48.96
2022-08-24T11:24:29.072Z,49.53
2022-08-24T11:27:00.152Z,51.03
2022-08-24T11:29:31.606Z,50.72
2022-08-24T11:32:00.592Z,49.35
2022-08-24T11:34:36.553Z,49.83
2022-08-24T11:37:05.888Z,47.88
2022-08-24T11:39:37.365Z,50.17
2022-08-24T11:42:17.421Z,49.63
2022-08-24T11:44:54.850Z,49.04
2022-08-24T11:47:47.171Z,53.48
2022-08-24T11:50:26.463Z,51.37
2022-08-24T11:53:15.161Z,51.54
2022-08-24T11:56:00.138Z,48.99
2022-08-24T11:58:39.992Z,47.50
2022-08-24T12:01:16.791Z,46.49
2022-08-24T12:03:53.843Z,46.12
2022-08-24T12:06:35.323Z,47.35
2022-08-24T12:09:10.301Z,44.80
2022-08-24T12:11:47.335Z,44.50
2022-08-24T12:14:23.396Z,42.10
2022-08-24T12:16:56.313Z,41.61
2022-08-24T12:19:29.728Z,41.73
2022-08-24T12:22:01.726Z,46.53
2022-08-24T12:24:34.544Z,47.99
2022-08-24T12:27:07.905Z,49.80
2022-08-24T12:29:39.593Z,51.26
2022-08-24T12:32:11.773Z,50.22
2022-08-24T12:34:50.144Z,50.46
2022-08-24T12:37:23.171Z,48.11
2022-08-24T12:39:59.084Z,47.13
2022-08-24T12:42:35.234Z,49.46
2022-08-24T12:45:06.240Z,48.18
2022-08-24T12:47:39.176Z,47.41
2022-08-24T12:50:12.969Z,46.47
2022-08-24T12:53:04.933Z,46.16
2022-08-24T12:56:17.483Z,45.90
2022-08-24T12:59:16.072Z,44.78
2022-08-24T13:01:48.856Z,47.65
2022-08-24T13:04:32.572Z,46.71
2022-08-24T13:07:06.819Z,46.77
2022-08-24T13:09:38.325Z,48.94
2022-08-24T13:12:57.066Z,50.75
2022-08-24T13:16:03.439Z,50.53
2022-08-24T13:19:05.344Z,49.37
2022-08-24T13:21:45.656Z,50.42
2022-08-24T13:24:54.114Z,51.46
2022-08-24T13:28:02.444Z,50.49
2022-08-24T13:30:51.126Z,47.39
2022-08-24T13:33:21.424Z,48.73
2022-08-24T13:36:02.188Z,47.29
2022-08-24T13:39:02.006Z,45.14
2022-08-24T13:42:01.784Z,45.79
2022-08-24T13:44:54.779Z,45.95
2022-08-24T13:47:35.273Z,48.72
2022-08-24T13:50:11.958Z,50.50
2022-08-24T13:52:51.438Z,52.88
2022-08-24T13:55:36.028Z,54.18
2022-08-24T13:58:35.670Z,54.85
2022-08-24T14:01:19.358Z,55.12
2022-08-24T14:04:17.504Z,54.77
2022-08-24T14:06:56.946Z,55.24
2022-08-24T14:09:42.102Z,55.28
2022-08-24T14:12:34.686Z,55.24
2022-08-24T14:15:14.876Z,55.37
2022-08-24T14:17:55.340Z,55.75
2022-08-24T14:20:58.265Z,55.63
2022-08-24T14:23:35.848Z,54.89
2022-08-24T14:26:49.800Z,55.21
2022-08-24T14:29:30.368Z,54.15
2022-08-24T14:32:35.893Z,51.35
2022-08-24T14:35:20.720Z,49.16
2022-08-24T14:38:02.416Z,49.61
2022-08-24T14:40:37.039Z,48.78
2022-08-24T14:43:30.081Z,46.77
2022-08-24T14:46:10.082Z,45.62
2022-08-24T14:48:49.368Z,46.03
2022-08-24T14:51:39.870Z,46.69
2022-08-24T14:54:23.299Z,48.87
2022-08-24T14:57:11.755Z,51.00
2022-08-24T14:59:55.399Z,52.65
2022-08-24T15:03:11.997Z,49.95
2022-08-24T15:06:03.842Z,51.41
2022-08-24T15:08:44.332Z,49.46
2022-08-24T15:11:18.390Z,51.42
2022-08-24T15:13:52.471Z,51.89
2022-08-24T15:16:26.698Z,50.31
2022-08-24T15:19:05.351Z,48.37
2022-08-24T15:21:48.485Z,47.84
2022-08-24T15:24:28.246Z,47.94
2022-08-24T15:27:11.057Z,47.59
2022-08-24T15:29:49.442Z,46.98
2022-08-24T15:32:18.958Z,48.03
2022-08-24T15:34:51.197Z,49.24
2022-08-24T15:37:29.102Z,47.76
2022-08-24T15:39:57.496Z,49.00
2022-08-24T15:42:29.489Z,52.78
2022-08-24T15:45:02.429Z,54.69
2022-08-24T15:47:33.639Z,52.84
2022-08-24T15:50:04.239Z,53.54
2022-08-24T15:52:52.987Z,53.56
2022-08-24T15:55:32.906Z,54.03
2022-08-24T15:58:15.536Z,54.81
2022-08-24T16:01:01.638Z,52.79
2022-08-24T16:03:46.859Z,51.11
2022-08-24T16:06:24.189Z,50.06
2022-08-24T16:09:05.072Z,46.95
2022-08-24T16:11:38.407Z,48.46
2022-08-24T16:14:14.128Z,50.55
2022-08-24T16:16:46.538Z,49.68
2022-08-24T16:19:27.490Z,50.74
2022-08-24T16:22:00.961Z,52.17
2022-08-24T16:24:33.386Z,54.94
2022-08-24T16:27:10.473Z,55.39
2022-08-24T16:29:50.313Z,55.31
2022-08-24T16:32:22.618Z,55.10
2022-08-24T16:35:17.918Z,54.33
2022-08-24T16:37:46.209Z,54.94
2022-08-24T16:40:14.266Z,53.96
2022-08-24T16:42:42.555Z,53.70
2022-08-24T16:45:14.996Z,53.22
2022-08-24T16:47:47.573Z,53.83
2022-08-24T16:50:17.992Z,53.75
2022-08-24T16:52:47.235Z,52.63
2022-08-24T16:55:15.590Z,52.79
2022-08-24T16:57:44.488Z,52.17
2022-08-24T17:00:17.264Z,53.09
2022-08-24T17:02:48.232Z,53.22
2022-08-24T17:05:17.917Z,53.18
2022-08-24T17:07:46.301Z,52.79
2022-08-24T17:10:17.178Z,53.55
2022-08-24T17:12:45.377Z,53.12
2022-08-24T17:15:16.307Z,52.77
2022-08-24T17:17:51.062Z,54.27
2022-08-24T17:20:20.815Z,53.41
2022-08-24T17:22:48.645Z,53.96
2022-08-24T17:25:16.802Z,53.40
2022-08-24T17:27:45.354Z,54.59
2022-08-24T17:30:16.918Z,55.05
2022-08-24T17:32:45.507Z,55.63
2022-08-24T17:35:15.046Z,56.99
2022-08-24T17:37:44.415Z,58.05
2022-08-24T17:40:15.207Z,58.81
2022-08-24T17:42:51.212Z,59.34
2022-08-24T17:45:23.956Z,60.31
2022-08-24T17:47:53.769Z,61.34
2022-08-24T17:50:24.723Z,61.45
2022-08-24T17:52:59.289Z,61.38
2022-08-24T17:55:29.217Z,61.95
2022-08-24T17:57:58.063Z,61.77
2022-08-24T18:00:27.664Z,61.94
2022-08-24T18:02:55.996Z,62.44
2022-08-24T18:05:24.472Z,62.49
2022-08-24T18:07:55.158Z,62.34
2022-08-24T18:10:27.977Z,62.55
2022-08-24T18:12:55.981Z,63.16
2022-08-24T18:15:36.019Z,63.66
2022-08-24T18:18:17.273Z,63.88
2022-08-24T18:20:47.161Z,63.68
2022-08-24T18:23:17.489Z,64.04
2022-08-24T18:25:53.854Z,64.54
2022-08-24T18:28:24.039Z,64.23
2022-08-24T18:30:52.090Z,64.71
2022-08-24T18:33:22.354Z,64.94
2022-08-24T18:35:50.583Z,64.90
2022-08-24T18:38:18.416Z,65.17
2022-08-24T18:40:52.359Z,65.35
2022-08-24T18:43:23.513Z,65.67
2022-08-24T18:45:52.977Z,66.45
2022-08-24T18:48:22.591Z,66.52
2022-08-24T18:50:51.078Z,66.86
2022-08-24T18:53:20.060Z,66.91
2022-08-24T18:55:48.927Z,67.27
2022-08-24T18:58:16.816Z,67.83
2022-08-24T19:00:45.301Z,67.25
2022-08-24T19:03:18.743Z,67.13
2022-08-24T19:05:48.028Z,67.04
2022-08-24T19:08:15.832Z,67.26
2022-08-24T19:10:43.607Z,67.70
2022-08-24T19:13:15.947Z,67.91
2022-08-24T19:15:46.659Z,68.39
2022-08-24T19:18:16.643Z,68.01
2022-08-24T19:20:49.055Z,68.09
2022-08-24T19:23:22.848Z,67.98
2022-08-24T19:25:51.694Z,67.98
2022-08-24T19:28:20.781Z,68.13
2022-08-24T19:30:49.658Z,68.51
2022-08-24T19:33:25.548Z,68.74
2022-08-24T19:35:54.354Z,68.63
2022-08-24T19:38:26.200Z,68.54
2022-08-24T19:40:57.249Z,68.49
2022-08-24T19:43:26.229Z,68.73
2022-08-24T19:46:03.331Z,68.46
2022-08-24T19:48:31.985Z,68.88
2022-08-24T19:51:02.111Z,69.01
2022-08-24T19:53:33.703Z,69.24
2022-08-24T19:56:01.782Z,68.98
2022-08-24T19:58:32.138Z,69.06
2022-08-24T20:01:09.427Z,69.15
2022-08-24T20:03:37.310Z,68.76
2022-08-24T20:06:05.634Z,69.34
2022-08-24T20:08:34.969Z,69.02
2022-08-24T20:11:03.070Z,68.89
2022-08-24T20:13:30.838Z,69.29
2022-08-24T20:15:59.180Z,68.91
2022-08-24T20:18:31.069Z,69.40
2022-08-24T20:20:59.607Z,69.30
2022-08-24T20:23:29.377Z,69.26
2022-08-24T20:26:00.384Z,69.01
2022-08-24T20:28:37.857Z,69.17
2022-08-24T20:31:06.567Z,69.32
2022-08-24T20:33:35.404Z,69.39
2022-08-24T20:36:05.529Z,69.31
2022-08-24T20:38:34.922Z,70.11
2022-08-24T20:41:04.192Z,70.40
2022-08-24T20:43:31.958Z,70.68
2022-08-24T20:46:00.011Z,69.90
2022-08-24T20:48:31.005Z,69.96
2022-08-24T20:51:00.284Z,69.62
2022-08-24T20:53:28.410Z,70.17
2022-08-24T20:55:57.626Z,70.55
2022-08-24T20:58:26.924Z,70.54
2022-08-24T21:00:54.827Z,70.67
2022-08-24T21:03:22.775Z,70.86
2022-08-24T21:05:52.390Z,71.21
2022-08-24T21:08:20.590Z,71.51
2022-08-24T21:10:48.425Z,71.18
2022-08-24T21:13:16.230Z,71.23
2022-08-24T21:15:46.334Z,71.37
2022-08-24T21:18:14.660Z,71.06
2022-08-24T21:20:42.670Z,71.02
2022-08-24T21:23:22.605Z,70.83
2022-08-24T21:25:50.505Z,70.54
2022-08-24T21:28:19.969Z,70.72
2022-08-24T21:30:49.481Z,70.77
2022-08-24T21:33:35.611Z,70.43
2022-08-24T21:36:05.062Z,70.38
2022-08-24T21:38:35.839Z,70.14
2022-08-24T21:41:04.172Z,70.93
2022-08-24T21:43:32.782Z,71.09
2022-08-24T21:46:01.945Z,71.14
2022-08-24T21:48:29.877Z,70.92
2022-08-24T21:50:57.673Z,70.53
2022-08-24T21:53:27.477Z,70.74
2022-08-24T21:55:56.906Z,70.33
2022-08-24T21:58:26.289Z,70.37
2022-08-24T22:00:54.244Z,70.32
2022-08-24T22:03:37.390Z,70.52
2022-08-24T22:06:08.584Z,71.01
2022-08-24T22:08:37.061Z,70.97
2022-08-24T22:11:05.298Z,71.18
2022-08-24T22:13:34.203Z,72.21
2022-08-24T22:16:04.159Z,72.51
2022-08-24T22:18:35.404Z,73.03
2022-08-24T22:21:08.070Z,73.58
2022-08-24T22:23:36.487Z,73.31
2022-08-24T22:26:05.193Z,73.17
2022-08-24T22:28:34.024Z,73.22
2022-08-24T22:31:02.305Z,72.95
2022-08-24T22:33:31.262Z,72.75
2022-08-24T22:36:00.825Z,72.95
2022-08-24T22:38:29.344Z,73.24
2022-08-24T22:40:57.192Z,73.08
2022-08-24T22:43:45.075Z,73.17
2022-08-24T22:46:13.246Z,73.39
2022-08-24T22:48:41.602Z,72.98
2022-08-24T22:51:11.230Z,72.65
2022-08-24T22:53:39.740Z,72.60
2022-08-24T22:56:15.437Z,73.38
2022-08-24T22:58:43.402Z,73.66
2022-08-24T23:01:11.275Z,73.81
2022-08-24T23:03:39.391Z,73.89
2022-08-24T23:06:07.691Z,73.86
2022-08-24T23:08:36.786Z,73.31
2022-08-24T23:11:04.726Z,73.20
2022-08-24T23:13:32.610Z,72.62
2022-08-24T23:16:01.335Z,72.67
2022-08-24T23:18:47.633Z,72.17
2022-08-24T23:21:16.265Z,73.18
2022-08-24T23:23:45.425Z,73.97
2022-08-24T23:26:18.185Z,73.80
2022-08-24T23:28:47.446Z,73.54
2022-08-24T23:31:20.321Z,74.58
2022-08-24T23:33:49.380Z,74.19
2022-08-24T23:36:21.069Z,75.56
2022-08-24T23:38:52.498Z,75.63
2022-08-24T23:41:22.428Z,74.95
2022-08-24T23:43:50.401Z,73.75
2022-08-24T23:46:18.653Z,74.23
2022-08-24T23:48:55.435Z,73.69
2022-08-24T23:51:24.875Z,73.41
2022-08-24T23:53:54.448Z,73.21
2022-08-24T23:56:26.144Z,73.10
2022-08-24T23:58:54.235Z,73.22
